createdAt,value
2018-12-22T00:00:33.524Z,6.20
2018-12-22T00:01:37.187Z,7.67
2018-12-22T00:02:41.489Z,6.30
2018-12-22T00:03:45.729Z,5.97
2018-12-22T00:04:50.372Z,5.90
2018-12-22T00:05:54.019Z,5.97
2018-12-22T00:06:57.482Z,6.43
2018-12-22T00:08:01.133Z,5.63
2018-12-22T00:09:06.350Z,5.60
2018-12-22T00:10:10.487Z,6.07
2018-12-22T00:11:14.210Z,5.20
2018-12-22T00:12:18.024Z,6.10
2018-12-22T00:13:21.783Z,6.20
2018-12-22T00:14:26.023Z,6.13
2018-12-22T00:15:29.559Z,5.10
2018-12-22T00:16:33.019Z,5.60
2018-12-22T00:17:36.729Z,5.80
2018-12-22T00:18:40.400Z,5.57
2018-12-22T00:19:44.091Z,6.03
2018-12-22T00:20:47.588Z,6.47
2018-12-22T00:21:51.434Z,6.10
2018-12-22T00:22:55.002Z,6.03
2018-12-22T00:23:58.494Z,6.50
2018-12-22T00:25:02.102Z,6.00
2018-12-22T00:26:05.713Z,6.77
2018-12-22T00:27:09.534Z,6.47
2018-12-22T00:28:21.868Z,5.93
2018-12-22T00:29:18.804Z,5.90
2018-12-22T00:30:22.709Z,6.07
2018-12-22T00:31:26.255Z,6.20
2018-12-22T00:32:29.913Z,6.03
2018-12-22T00:33:33.385Z,5.90
2018-12-22T00:34:37.854Z,6.20
2018-12-22T00:35:41.307Z,5.90
2018-12-22T00:36:44.869Z,6.60
2018-12-22T00:37:49.640Z,5.10
2018-12-22T00:38:53.375Z,6.23
2018-12-22T00:39:56.975Z,6.03
2018-12-22T00:41:00.622Z,6.27
2018-12-22T00:42:04.393Z,6.20
2018-12-22T00:43:08.085Z,7.20
2018-12-22T00:44:11.690Z,6.20
2018-12-22T00:45:15.278Z,6.77
2018-12-22T00:46:18.882Z,6.77
2018-12-22T00:47:22.380Z,6.43
2018-12-22T00:48:25.917Z,7.13
2018-12-22T00:49:29.455Z,6.23
2018-12-22T00:50:33.180Z,6.60
2018-12-22T00:51:36.988Z,6.30
2018-12-22T00:52:40.447Z,6.37
2018-12-22T00:53:44.584Z,6.57
2018-12-22T00:54:48.148Z,6.30
2018-12-22T00:55:51.885Z,6.37
2018-12-22T00:56:55.430Z,6.87
2018-12-22T00:57:58.980Z,6.50
2018-12-22T00:59:02.595Z,6.87
2018-12-22T01:00:07.089Z,6.73
2018-12-22T01:01:10.597Z,6.87
2018-12-22T01:02:14.093Z,6.60
2018-12-22T01:03:18.063Z,6.80
2018-12-22T01:04:21.751Z,7.57
2018-12-22T01:05:25.230Z,7.97
2018-12-22T01:06:29.437Z,7.50
2018-12-22T01:07:33.812Z,8.87
2018-12-22T01:08:39.161Z,7.37
2018-12-22T01:09:43.563Z,8.10
2018-12-22T01:10:47.231Z,8.13
2018-12-22T01:11:50.708Z,7.10
2018-12-22T01:12:54.245Z,7.47
2018-12-22T01:13:57.837Z,7.87
2018-12-22T01:15:01.914Z,7.80
2018-12-22T01:16:05.453Z,7.87
2018-12-22T01:17:08.898Z,8.03
2018-12-22T01:18:12.533Z,6.53
2018-12-22T01:19:15.978Z,8.00
2018-12-22T01:20:19.579Z,7.20
2018-12-22T01:21:24.388Z,7.53
2018-12-22T01:22:28.840Z,6.80
2018-12-22T01:23:32.709Z,7.33
2018-12-22T01:24:36.746Z,7.87
2018-12-22T01:25:40.573Z,7.83
2018-12-22T01:26:44.077Z,8.00
2018-12-22T01:27:47.663Z,8.43
2018-12-22T01:28:51.777Z,7.70
2018-12-22T01:29:55.820Z,7.43
2018-12-22T01:30:59.267Z,7.80
2018-12-22T01:32:03.230Z,7.77
2018-12-22T01:33:06.992Z,7.33
2018-12-22T01:34:10.467Z,7.97
2018-12-22T01:35:13.953Z,7.43
2018-12-22T01:36:17.454Z,7.57
2018-12-22T01:37:20.977Z,7.60
2018-12-22T01:38:24.455Z,8.17
2018-12-22T01:39:27.958Z,8.13
2018-12-22T01:40:31.650Z,7.30
2018-12-22T01:41:35.170Z,7.70
2018-12-22T01:42:38.878Z,6.87
2018-12-22T01:43:42.861Z,6.73
2018-12-22T01:44:46.444Z,7.80
2018-12-22T01:45:50.674Z,6.87
2018-12-22T01:46:54.171Z,6.90
2018-12-22T01:48:01.421Z,8.03
2018-12-22T01:49:05.320Z,8.50
2018-12-22T01:50:08.916Z,8.27
2018-12-22T01:51:12.516Z,8.80
2018-12-22T01:52:16.286Z,7.63
2018-12-22T01:53:19.853Z,7.63
2018-12-22T01:54:23.567Z,7.53
2018-12-22T01:55:27.211Z,7.53
2018-12-22T01:56:31.348Z,7.97
2018-12-22T01:57:34.826Z,7.30
2018-12-22T01:58:38.911Z,7.83
2018-12-22T01:59:42.921Z,7.87
2018-12-22T02:00:46.456Z,6.93
2018-12-22T02:01:50.156Z,7.07
2018-12-22T02:02:53.920Z,8.90
2018-12-22T02:03:57.431Z,7.23
2018-12-22T02:05:00.904Z,6.77
2018-12-22T02:06:04.422Z,7.07
2018-12-22T02:07:07.857Z,7.37
2018-12-22T02:08:11.497Z,7.07
2018-12-22T02:09:15.153Z,7.80
2018-12-22T02:10:18.759Z,8.73
2018-12-22T02:11:22.184Z,7.53
2018-12-22T02:12:25.927Z,7.13
2018-12-22T02:13:29.411Z,7.20
2018-12-22T02:14:32.941Z,7.43
2018-12-22T02:15:36.518Z,7.50
2018-12-22T02:16:40.024Z,7.63
2018-12-22T02:17:43.583Z,8.00
2018-12-22T02:18:47.377Z,8.97
2018-12-22T02:19:50.997Z,8.30
2018-12-22T02:20:55.669Z,8.73
2018-12-22T02:21:59.125Z,8.67
2018-12-22T02:23:02.755Z,7.00
2018-12-22T02:24:06.282Z,8.33
2018-12-22T02:25:09.720Z,8.00
2018-12-22T02:26:13.276Z,7.87
2018-12-22T02:27:16.751Z,7.93
2018-12-22T02:28:20.321Z,7.93
2018-12-22T02:29:23.865Z,7.87
2018-12-22T02:30:28.019Z,10.00
2018-12-22T02:31:32.233Z,7.40
2018-12-22T02:32:35.912Z,7.63
2018-12-22T02:33:39.414Z,7.90
2018-12-22T02:34:42.982Z,8.07
2018-12-22T02:35:46.791Z,8.07
2018-12-22T02:36:50.457Z,8.07
2018-12-22T02:37:53.887Z,7.00
2018-12-22T02:38:57.420Z,8.13
2018-12-22T02:40:00.923Z,9.30
2018-12-22T02:41:04.537Z,8.73
2018-12-22T02:42:08.063Z,9.27
2018-12-22T02:43:11.498Z,8.50
2018-12-22T02:44:14.924Z,7.47
2018-12-22T02:45:18.403Z,8.03
2018-12-22T02:46:22.132Z,9.03
2018-12-22T02:47:25.713Z,7.87
2018-12-22T02:48:29.158Z,7.73
2018-12-22T02:49:32.768Z,9.67
2018-12-22T02:50:36.211Z,7.57
2018-12-22T02:51:39.698Z,8.30
2018-12-22T02:52:43.725Z,9.00
2018-12-22T02:53:47.235Z,8.43
2018-12-22T02:54:51.093Z,7.17
2018-12-22T02:55:55.047Z,7.60
2018-12-22T02:56:59.223Z,7.90
2018-12-22T02:58:02.704Z,8.63
2018-12-22T02:59:07.008Z,9.10
2018-12-22T03:00:11.432Z,8.30
2018-12-22T03:01:14.928Z,8.77
2018-12-22T03:02:18.905Z,8.80
2018-12-22T03:03:22.354Z,9.37
2018-12-22T03:04:25.967Z,7.33
2018-12-22T03:05:29.444Z,8.30
2018-12-22T03:06:32.998Z,8.10
2018-12-22T03:07:36.524Z,7.70
2018-12-22T03:08:40.010Z,7.00
2018-12-22T03:09:43.677Z,7.17
2018-12-22T03:10:47.181Z,8.53
2018-12-22T03:11:50.841Z,9.13
2018-12-22T03:12:54.337Z,7.77
2018-12-22T03:13:57.767Z,8.23
2018-12-22T03:15:01.360Z,7.63
2018-12-22T03:16:04.825Z,9.43
2018-12-22T03:17:08.391Z,7.53
2018-12-22T03:18:11.837Z,8.77
2018-12-22T03:19:15.307Z,8.43
2018-12-22T03:20:18.877Z,8.50
2018-12-22T03:21:22.422Z,8.97
2018-12-22T03:22:26.081Z,8.40
2018-12-22T03:23:29.590Z,7.10
2018-12-22T03:24:33.126Z,9.67
2018-12-22T03:25:36.656Z,7.10
2018-12-22T03:26:40.057Z,7.97
2018-12-22T03:27:43.682Z,9.33
2018-12-22T03:28:47.160Z,8.23
2018-12-22T03:29:50.679Z,7.40
2018-12-22T03:30:54.160Z,7.40
2018-12-22T03:31:57.610Z,6.33
2018-12-22T03:33:01.287Z,7.20
2018-12-22T03:34:05.441Z,7.53
2018-12-22T03:35:08.942Z,7.27
2018-12-22T03:36:12.466Z,6.53
2018-12-22T03:37:16.244Z,7.53
2018-12-22T03:38:19.698Z,7.77
2018-12-22T03:39:23.352Z,8.23
2018-12-22T03:40:26.889Z,7.37
2018-12-22T03:41:30.665Z,6.33
2018-12-22T03:42:34.197Z,6.27
2018-12-22T03:43:37.682Z,7.53
2018-12-22T03:44:41.110Z,6.17
2018-12-22T03:45:44.664Z,7.73
2018-12-22T03:46:48.490Z,7.20
2018-12-22T03:47:51.946Z,5.90
2018-12-22T03:48:55.379Z,5.90
2018-12-22T03:49:58.845Z,6.70
2018-12-22T03:51:02.315Z,6.73
2018-12-22T03:52:05.767Z,6.40
2018-12-22T03:53:09.183Z,5.83
2018-12-22T03:54:12.776Z,6.00
2018-12-22T03:55:16.241Z,5.20
2018-12-22T03:56:19.740Z,5.77
2018-12-22T03:57:23.190Z,5.73
2018-12-22T03:58:26.724Z,5.67
2018-12-22T03:59:30.161Z,5.07
2018-12-22T04:00:33.613Z,5.70
2018-12-22T04:01:37.076Z,4.90
2018-12-22T04:02:40.528Z,5.20
2018-12-22T04:03:44.071Z,6.27
2018-12-22T04:04:47.488Z,5.27
2018-12-22T04:05:51.158Z,4.57
2018-12-22T04:06:54.590Z,6.20
2018-12-22T04:07:59.819Z,5.47
2018-12-22T04:09:04.914Z,5.13
2018-12-22T04:10:09.245Z,5.37
2018-12-22T04:11:12.812Z,6.00
2018-12-22T04:12:16.412Z,6.67
2018-12-22T04:13:19.874Z,5.40
2018-12-22T04:14:23.932Z,4.97
2018-12-22T04:15:27.443Z,6.10
2018-12-22T04:16:31.806Z,5.63
2018-12-22T04:17:35.229Z,5.67
2018-12-22T04:18:38.690Z,5.80
2018-12-22T04:19:42.220Z,6.07
2018-12-22T04:20:45.794Z,6.00
2018-12-22T04:21:50.320Z,5.67
2018-12-22T04:22:53.824Z,6.17
2018-12-22T04:23:57.420Z,5.73
2018-12-22T04:25:00.904Z,5.67
2018-12-22T04:26:04.463Z,5.60
2018-12-22T04:27:07.919Z,6.03
2018-12-22T04:28:11.495Z,6.57
2018-12-22T04:29:15.116Z,5.27
2018-12-22T04:30:18.630Z,6.00
2018-12-22T04:31:22.154Z,5.90
2018-12-22T04:32:26.191Z,5.57
2018-12-22T04:33:35.369Z,5.40
2018-12-22T04:34:39.073Z,5.43
2018-12-22T04:35:42.676Z,6.73
2018-12-22T04:36:46.268Z,6.43
2018-12-22T04:37:49.891Z,5.93
2018-12-22T04:38:53.994Z,5.67
2018-12-22T04:39:57.873Z,5.50
2018-12-22T04:41:01.715Z,4.83
2018-12-22T04:42:06.097Z,5.73
2018-12-22T04:43:09.850Z,5.73
2018-12-22T04:44:13.499Z,5.03
2018-12-22T04:45:17.418Z,4.80
2018-12-22T04:46:21.181Z,5.87
2018-12-22T04:47:24.821Z,5.23
2018-12-22T04:48:28.425Z,5.03
2018-12-22T04:49:32.315Z,5.50
2018-12-22T04:50:35.919Z,5.37
2018-12-22T04:51:39.489Z,4.90
2018-12-22T04:52:42.994Z,4.70
2018-12-22T04:53:46.562Z,5.03
2018-12-22T04:54:50.242Z,4.90
2018-12-22T04:55:53.856Z,5.30
2018-12-22T04:56:57.456Z,4.83
2018-12-22T04:58:01.023Z,5.10
2018-12-22T04:59:04.775Z,4.53
2018-12-22T05:00:10.416Z,4.60
2018-12-22T05:01:14.121Z,4.70
2018-12-22T05:02:17.847Z,4.47
2018-12-22T05:03:21.456Z,5.03
2018-12-22T05:04:25.222Z,4.70
2018-12-22T05:05:28.782Z,4.53
2018-12-22T05:06:32.418Z,4.23
2018-12-22T05:07:35.934Z,4.50
2018-12-22T05:08:39.455Z,4.83
2018-12-22T05:09:43.032Z,5.10
2018-12-22T05:10:46.708Z,4.30
2018-12-22T05:11:50.317Z,4.50
2018-12-22T05:12:54.282Z,5.10
2018-12-22T05:13:57.851Z,4.10
2018-12-22T05:15:01.435Z,4.60
2018-12-22T05:16:05.042Z,4.57
2018-12-22T05:17:08.543Z,4.70
2018-12-22T05:18:12.104Z,5.43
2018-12-22T05:19:15.679Z,4.37
2018-12-22T05:20:19.268Z,4.67
2018-12-22T05:21:23.157Z,4.73
2018-12-22T05:22:26.985Z,3.73
2018-12-22T05:23:30.425Z,4.50
2018-12-22T05:24:33.861Z,3.93
2018-12-22T05:25:37.303Z,4.47
2018-12-22T05:26:40.769Z,4.07
2018-12-22T05:27:44.221Z,4.07
2018-12-22T05:28:47.669Z,4.07
2018-12-22T05:29:51.975Z,4.77
2018-12-22T05:30:56.208Z,4.37
2018-12-22T05:31:59.679Z,3.23
2018-12-22T05:33:03.163Z,4.20
2018-12-22T05:34:06.627Z,3.90
2018-12-22T05:35:10.132Z,4.33
2018-12-22T05:36:13.608Z,3.77
2018-12-22T05:37:17.068Z,3.87
2018-12-22T05:38:20.523Z,3.80
2018-12-22T05:39:24.020Z,3.83
2018-12-22T05:40:27.518Z,3.63
2018-12-22T05:41:31.007Z,3.80
2018-12-22T05:42:34.505Z,3.90
2018-12-22T05:43:37.964Z,3.63
2018-12-22T05:44:41.615Z,4.13
2018-12-22T05:45:45.068Z,3.87
2018-12-22T05:46:48.518Z,3.43
2018-12-22T05:47:51.976Z,3.63
2018-12-22T05:48:56.105Z,3.57
2018-12-22T05:49:59.603Z,3.47
2018-12-22T05:51:03.092Z,3.50
2018-12-22T05:52:06.564Z,3.03
2018-12-22T05:53:10.087Z,3.43
2018-12-22T05:54:13.528Z,3.80
2018-12-22T05:55:17.001Z,3.00
2018-12-22T05:56:20.408Z,3.87
2018-12-22T05:57:23.874Z,3.30
2018-12-22T05:58:28.086Z,3.30
2018-12-22T05:59:31.558Z,3.37
2018-12-22T06:00:35.021Z,2.80
2018-12-22T06:01:38.503Z,3.60
2018-12-22T06:02:42.000Z,3.33
2018-12-22T06:03:45.506Z,3.57
2018-12-22T06:04:48.959Z,3.43
2018-12-22T06:05:52.487Z,3.30
2018-12-22T06:06:56.565Z,3.23
2018-12-22T06:08:00.141Z,3.60
2018-12-22T06:09:05.433Z,3.50
2018-12-22T06:10:09.039Z,4.20
2018-12-22T06:11:12.476Z,3.40
2018-12-22T06:12:15.917Z,3.43
2018-12-22T06:13:19.452Z,3.43
2018-12-22T06:14:22.961Z,3.57
2018-12-22T06:15:26.443Z,3.60
2018-12-22T06:16:29.914Z,3.97
2018-12-22T06:17:33.431Z,3.83
2018-12-22T06:18:37.221Z,4.50
2018-12-22T06:19:40.676Z,4.30
2018-12-22T06:20:44.164Z,4.27
2018-12-22T06:21:47.644Z,5.00
2018-12-22T06:22:51.165Z,4.43
2018-12-22T06:23:54.700Z,3.83
2018-12-22T06:24:58.153Z,4.63
2018-12-22T06:26:01.648Z,3.93
2018-12-22T06:27:05.110Z,4.20
2018-12-22T06:28:08.657Z,4.53
2018-12-22T06:29:12.225Z,4.37
2018-12-22T06:30:15.739Z,4.10
2018-12-22T06:31:19.178Z,4.40
2018-12-22T06:32:22.687Z,3.77
2018-12-22T06:33:26.176Z,4.00
2018-12-22T06:34:29.772Z,4.70
2018-12-22T06:35:33.284Z,4.07
2018-12-22T06:36:36.445Z,3.60
2018-12-22T06:37:39.996Z,4.03
2018-12-22T06:38:43.440Z,4.27
2018-12-22T06:39:46.916Z,4.27
2018-12-22T06:40:50.370Z,4.40
2018-12-22T06:41:53.855Z,3.63
2018-12-22T06:42:57.732Z,3.80
2018-12-22T06:44:01.261Z,3.87
2018-12-22T06:45:05.159Z,5.10
2018-12-22T06:46:08.675Z,4.27
2018-12-22T06:47:12.212Z,3.90
2018-12-22T06:48:15.796Z,3.17
2018-12-22T06:49:19.328Z,3.57
2018-12-22T06:50:22.913Z,3.73
2018-12-22T06:51:26.421Z,3.83
2018-12-22T06:52:30.161Z,3.17
2018-12-22T06:53:33.720Z,3.07
2018-12-22T06:54:37.206Z,3.50
2018-12-22T06:55:40.760Z,3.30
2018-12-22T06:56:44.269Z,3.10
2018-12-22T06:57:47.720Z,3.20
2018-12-22T06:58:51.256Z,3.10
2018-12-22T06:59:54.776Z,2.77
2018-12-22T07:00:58.391Z,2.83
2018-12-22T07:02:01.834Z,3.10
2018-12-22T07:03:05.335Z,3.13
2018-12-22T07:04:08.851Z,3.13
2018-12-22T07:05:12.439Z,2.93
2018-12-22T07:06:15.909Z,3.17
2018-12-22T07:07:19.381Z,3.40
2018-12-22T07:08:22.859Z,3.83
2018-12-22T07:09:26.424Z,3.00
2018-12-22T07:10:30.033Z,3.57
2018-12-22T07:11:33.653Z,2.80
2018-12-22T07:12:37.192Z,3.13
2018-12-22T07:13:40.683Z,3.13
2018-12-22T07:14:44.169Z,3.77
2018-12-22T07:15:49.622Z,2.97
2018-12-22T07:16:53.459Z,2.80
2018-12-22T07:17:56.952Z,2.93
2018-12-22T07:19:00.439Z,2.87
2018-12-22T07:20:04.219Z,3.50
2018-12-22T07:21:07.694Z,2.80
2018-12-22T07:22:11.256Z,3.03
2018-12-22T07:23:14.820Z,2.97
2018-12-22T07:24:18.869Z,2.80
2018-12-22T07:25:23.172Z,4.03
2018-12-22T07:26:26.909Z,3.23
2018-12-22T07:27:30.339Z,3.40
2018-12-22T07:28:33.959Z,2.93
2018-12-22T07:29:37.468Z,2.93
2018-12-22T07:30:40.923Z,3.03
2018-12-22T07:31:44.532Z,3.20
2018-12-22T07:32:56.538Z,3.30
2018-12-22T07:33:53.541Z,3.93
2018-12-22T07:34:57.062Z,3.43
2018-12-22T07:36:00.924Z,4.07
2018-12-22T07:37:04.505Z,3.20
2018-12-22T07:38:08.184Z,3.87
2018-12-22T07:39:11.784Z,3.43
2018-12-22T07:40:15.312Z,3.30
2018-12-22T07:41:18.804Z,3.90
2018-12-22T07:42:22.314Z,3.40
2018-12-22T07:43:25.765Z,3.63
2018-12-22T07:44:29.191Z,4.03
2018-12-22T07:45:32.784Z,3.37
2018-12-22T07:46:36.695Z,3.27
2018-12-22T07:47:41.063Z,2.50
2018-12-22T07:48:45.390Z,2.60
2018-12-22T07:49:49.049Z,2.93
2018-12-22T07:50:52.930Z,2.13
2018-12-22T07:51:57.281Z,1.70
2018-12-22T07:53:01.055Z,1.53
2018-12-22T07:54:04.691Z,1.50
2018-12-22T07:55:08.461Z,1.60
2018-12-22T07:56:12.206Z,1.30
2018-12-22T07:57:15.668Z,1.50
2018-12-22T07:58:19.375Z,1.40
2018-12-22T07:59:23.005Z,1.27
2018-12-22T08:00:34.568Z,1.27
2018-12-22T08:01:32.133Z,1.10
2018-12-22T08:02:35.659Z,0.83
2018-12-22T08:03:39.196Z,1.10
2018-12-22T08:04:42.799Z,0.90
2018-12-22T08:05:46.387Z,0.70
2018-12-22T08:06:50.005Z,1.20
2018-12-22T08:07:54.099Z,0.87
2018-12-22T08:08:57.780Z,0.83
2018-12-22T08:10:03.009Z,1.10
2018-12-22T08:11:06.953Z,1.03
2018-12-22T08:12:10.897Z,1.10
2018-12-22T08:13:15.063Z,1.20
2018-12-22T08:14:18.838Z,1.20
2018-12-22T08:15:22.332Z,1.40
2018-12-22T08:16:29.446Z,1.43
2018-12-22T08:17:36.034Z,1.60
2018-12-22T08:18:40.500Z,1.53
2018-12-22T08:19:44.577Z,1.50
2018-12-22T08:20:48.597Z,1.60
2018-12-22T08:21:52.060Z,1.43
2018-12-22T08:22:57.799Z,1.53
2018-12-22T08:24:01.970Z,1.90
2018-12-22T08:25:07.447Z,1.23
2018-12-22T08:26:11.012Z,1.57
2018-12-22T08:27:15.478Z,1.77
2018-12-22T08:28:19.849Z,1.40
2018-12-22T08:29:23.424Z,1.70
2018-12-22T08:30:27.579Z,1.40
2018-12-22T08:31:31.123Z,1.23
2018-12-22T08:32:34.969Z,1.20
2018-12-22T08:33:38.432Z,1.00
2018-12-22T08:34:41.934Z,1.00
2018-12-22T08:35:45.434Z,0.90
2018-12-22T08:36:48.955Z,0.80
2018-12-22T08:37:52.399Z,1.00
2018-12-22T08:38:56.094Z,0.90
2018-12-22T08:39:59.629Z,0.87
2018-12-22T08:41:03.208Z,1.10
2018-12-22T08:42:06.729Z,0.80
2018-12-22T08:43:10.591Z,0.90
2018-12-22T08:44:14.746Z,0.87
2018-12-22T08:45:18.281Z,1.07
2018-12-22T08:46:21.740Z,0.87
2018-12-22T08:47:25.183Z,1.00
2018-12-22T08:48:28.685Z,0.60
2018-12-22T08:49:32.217Z,0.87
2018-12-22T08:50:35.730Z,1.33
2018-12-22T08:51:39.228Z,0.93
2018-12-22T08:52:42.729Z,0.70
2018-12-22T08:53:46.262Z,0.70
2018-12-22T08:54:49.756Z,0.60
2018-12-22T08:55:53.427Z,0.50
2018-12-22T08:56:57.215Z,0.70
2018-12-22T08:58:00.680Z,0.80
2018-12-22T08:59:04.208Z,0.77
2018-12-22T09:00:10.741Z,0.70
2018-12-22T09:01:14.280Z,0.90
2018-12-22T09:02:17.813Z,0.70
2018-12-22T09:03:21.305Z,0.90
2018-12-22T09:04:24.812Z,0.60
2018-12-22T09:05:28.292Z,0.73
2018-12-22T09:06:31.857Z,0.80
2018-12-22T09:07:35.378Z,0.60
2018-12-22T09:08:38.944Z,0.70
2018-12-22T09:09:42.449Z,0.57
2018-12-22T09:10:46.006Z,0.70
2018-12-22T09:11:49.592Z,0.70
2018-12-22T09:12:53.120Z,0.70
2018-12-22T09:13:57.629Z,0.70
2018-12-22T09:15:01.192Z,0.73
2018-12-22T09:16:05.083Z,0.70
2018-12-22T09:17:08.741Z,0.97
2018-12-22T09:18:12.546Z,0.70
2018-12-22T09:19:16.048Z,0.80
2018-12-22T09:20:19.655Z,0.80
2018-12-22T09:21:23.229Z,0.60
2018-12-22T09:22:26.788Z,0.70
2018-12-22T09:23:30.521Z,0.93
2018-12-22T09:24:34.550Z,0.67
2018-12-22T09:25:38.037Z,0.87
2018-12-22T09:26:41.586Z,0.43
2018-12-22T09:27:45.120Z,0.90
2018-12-22T09:28:48.730Z,0.80
2018-12-22T09:29:52.245Z,0.70
2018-12-22T09:31:00.752Z,1.93
2018-12-22T09:32:01.551Z,0.70
2018-12-22T09:33:05.073Z,1.13
2018-12-22T09:34:13.243Z,0.87
2018-12-22T09:35:14.327Z,1.03
2018-12-22T09:36:17.837Z,1.00
2018-12-22T09:37:21.394Z,1.10
2018-12-22T09:38:24.948Z,1.00
2018-12-22T09:39:28.438Z,1.00
2018-12-22T09:40:32.012Z,1.40
2018-12-22T09:41:35.771Z,1.10
2018-12-22T09:42:39.310Z,1.30
2018-12-22T09:43:42.795Z,1.20
2018-12-22T09:44:46.361Z,1.40
2018-12-22T09:45:49.969Z,1.40
2018-12-22T09:46:53.462Z,1.70
2018-12-22T09:47:57.029Z,1.67
2018-12-22T09:49:00.609Z,1.50
2018-12-22T09:50:05.586Z,2.03
2018-12-22T09:51:09.080Z,2.37
2018-12-22T09:52:12.684Z,2.23
2018-12-22T09:53:16.201Z,2.20
2018-12-22T09:54:19.703Z,2.37
2018-12-22T09:55:23.228Z,2.57
2018-12-22T09:56:26.741Z,2.40
2018-12-22T09:57:30.316Z,3.37
2018-12-22T09:58:34.057Z,3.20
2018-12-22T09:59:37.693Z,4.00
2018-12-22T10:00:41.233Z,3.80
2018-12-22T10:01:44.766Z,4.60
2018-12-22T10:02:48.312Z,4.87
2018-12-22T10:03:51.921Z,4.77
2018-12-22T10:04:55.562Z,4.60
2018-12-22T10:05:59.076Z,4.27
2018-12-22T10:07:02.584Z,4.80
2018-12-22T10:08:06.187Z,4.80
2018-12-22T10:09:09.679Z,4.63
2018-12-22T10:10:17.644Z,5.10
2018-12-22T10:11:21.159Z,5.30
2018-12-22T10:12:24.635Z,5.33
2018-12-22T10:13:28.162Z,5.33
2018-12-22T10:14:31.693Z,5.33
2018-12-22T10:15:35.194Z,5.87
2018-12-22T10:16:38.680Z,5.00
2018-12-22T10:17:42.229Z,4.80
2018-12-22T10:18:45.784Z,4.77
2018-12-22T10:19:49.269Z,5.77
2018-12-22T10:20:52.798Z,5.30
2018-12-22T10:21:56.273Z,5.23
2018-12-22T10:22:59.838Z,4.67
2018-12-22T10:24:03.400Z,4.47
2018-12-22T10:25:10.067Z,4.57
2018-12-22T10:26:13.707Z,4.37
2018-12-22T10:27:17.262Z,4.37
2018-12-22T10:28:20.772Z,4.33
2018-12-22T10:29:24.244Z,3.63
2018-12-22T10:30:27.925Z,3.67
2018-12-22T10:31:31.432Z,3.40
2018-12-22T10:32:35.288Z,3.60
2018-12-22T10:33:39.641Z,3.30
2018-12-22T10:34:43.377Z,3.30
2018-12-22T10:35:46.920Z,3.87
2018-12-22T10:36:50.395Z,3.50
2018-12-22T10:37:54.137Z,3.03
2018-12-22T10:38:57.927Z,2.80
2018-12-22T10:40:01.496Z,3.50
2018-12-22T10:41:05.051Z,3.20
2018-12-22T10:42:08.683Z,3.17
2018-12-22T10:43:12.403Z,3.10
2018-12-22T10:44:16.050Z,3.17
2018-12-22T10:45:19.716Z,3.10
2018-12-22T10:46:23.254Z,3.00
2018-12-22T10:47:27.181Z,3.20
2018-12-22T10:48:30.792Z,3.20
2018-12-22T10:49:35.033Z,3.17
2018-12-22T10:50:38.752Z,3.37
2018-12-22T10:51:42.683Z,3.17
2018-12-22T10:52:46.216Z,3.30
2018-12-22T10:53:50.110Z,3.20
2018-12-22T10:54:53.678Z,3.13
2018-12-22T10:55:57.200Z,3.77
2018-12-22T10:57:00.832Z,3.50
2018-12-22T10:58:05.331Z,3.33
2018-12-22T10:59:09.411Z,3.00
2018-12-22T11:00:15.580Z,3.00
2018-12-22T11:01:26.508Z,3.00
2018-12-22T11:02:24.846Z,3.13
2018-12-22T11:03:28.589Z,3.00
2018-12-22T11:04:32.294Z,3.20
2018-12-22T11:05:35.840Z,3.40
2018-12-22T11:06:39.349Z,3.13
2018-12-22T11:07:42.879Z,4.10
2018-12-22T11:08:46.392Z,2.90
2018-12-22T11:09:50.786Z,3.30
2018-12-22T11:10:54.341Z,4.20
2018-12-22T11:11:58.212Z,3.17
2018-12-22T11:13:02.568Z,3.10
2018-12-22T11:14:06.121Z,3.60
2018-12-22T11:15:09.593Z,3.10
2018-12-22T11:16:13.342Z,3.50
2018-12-22T11:17:16.854Z,3.33
2018-12-22T11:18:20.485Z,3.27
2018-12-22T11:19:24.084Z,2.93
2018-12-22T11:20:27.609Z,3.00
2018-12-22T11:21:31.748Z,3.27
2018-12-22T11:22:36.006Z,3.87
2018-12-22T11:23:39.484Z,3.27
2018-12-22T11:24:43.048Z,4.03
2018-12-22T11:25:47.128Z,3.50
2018-12-22T11:26:50.829Z,3.03
2018-12-22T11:27:54.517Z,3.27
2018-12-22T11:28:58.492Z,3.27
2018-12-22T11:30:02.109Z,3.13
2018-12-22T11:31:06.087Z,2.50
2018-12-22T11:32:09.565Z,3.17
2018-12-22T11:33:13.576Z,3.17
2018-12-22T11:34:17.701Z,2.90
2018-12-22T11:35:21.946Z,3.00
2018-12-22T11:36:26.285Z,2.70
2018-12-22T11:37:30.869Z,3.20
2018-12-22T11:38:34.700Z,2.80
2018-12-22T11:39:38.231Z,3.27
2018-12-22T11:40:41.941Z,2.77
2018-12-22T11:41:45.528Z,2.63
2018-12-22T11:42:49.108Z,2.20
2018-12-22T11:43:52.895Z,2.17
2018-12-22T11:44:56.664Z,2.13
2018-12-22T11:46:00.118Z,2.60
2018-12-22T11:47:12.253Z,2.20
2018-12-22T11:48:28.881Z,2.60
2018-12-22T11:49:37.356Z,2.47
2018-12-22T11:50:41.020Z,2.97
2018-12-22T11:51:44.859Z,2.27
2018-12-22T11:52:48.594Z,2.23
2018-12-22T11:53:52.260Z,2.33
2018-12-22T11:54:56.063Z,2.20
2018-12-22T11:56:00.187Z,2.50
2018-12-22T11:57:03.788Z,2.43
2018-12-22T11:58:07.513Z,1.90
2018-12-22T11:59:11.214Z,1.80
2018-12-22T12:00:14.922Z,2.60
2018-12-22T12:01:18.527Z,2.30
2018-12-22T12:02:22.106Z,1.97
2018-12-22T12:03:25.714Z,1.83
2018-12-22T12:04:29.251Z,2.30
2018-12-22T12:05:32.797Z,2.30
2018-12-22T12:06:36.392Z,1.87
2018-12-22T12:07:40.072Z,2.43
2018-12-22T12:08:43.928Z,2.00
2018-12-22T12:09:47.396Z,2.10
2018-12-22T12:10:51.067Z,2.50
2018-12-22T12:11:54.622Z,1.97
2018-12-22T12:12:58.422Z,2.27
2018-12-22T12:14:02.126Z,2.37
2018-12-22T12:15:10.777Z,2.50
2018-12-22T12:16:57.467Z,2.10
2018-12-22T12:18:23.412Z,2.17
2018-12-22T12:19:29.602Z,3.10
2018-12-22T12:20:33.410Z,1.90
2018-12-22T12:21:37.246Z,2.03
2018-12-22T12:22:40.814Z,2.10
2018-12-22T12:23:44.420Z,2.13
2018-12-22T12:24:48.532Z,2.50
2018-12-22T12:25:52.139Z,1.93
2018-12-22T12:26:55.740Z,2.13
2018-12-22T12:27:59.498Z,1.83
2018-12-22T12:29:03.181Z,1.90
2018-12-22T12:30:09.238Z,1.80
2018-12-22T12:31:13.024Z,1.80
2018-12-22T12:32:16.621Z,2.25
2018-12-22T12:33:21.494Z,2.27
2018-12-22T12:34:25.154Z,1.80
2018-12-22T12:35:28.771Z,1.80
2018-12-22T12:36:32.687Z,1.30
2018-12-22T12:37:36.425Z,1.27
2018-12-22T12:38:40.155Z,2.13
2018-12-22T12:39:43.720Z,1.63
2018-12-22T12:40:47.944Z,1.30
2018-12-22T12:41:51.532Z,1.73
2018-12-22T12:42:55.060Z,1.27
2018-12-22T12:43:58.697Z,1.90
2018-12-22T12:45:03.327Z,1.83
2018-12-22T12:46:07.158Z,1.33
2018-12-22T12:47:11.153Z,1.90
2018-12-22T12:48:14.670Z,1.70
2018-12-22T12:49:19.436Z,1.50
2018-12-22T12:50:24.772Z,1.60
2018-12-22T12:51:28.459Z,1.98
2018-12-22T12:52:33.362Z,1.80
2018-12-22T12:53:37.588Z,1.67
2018-12-22T12:54:41.339Z,1.67
2018-12-22T12:55:44.972Z,2.00
2018-12-22T12:56:53.840Z,1.70
2018-12-22T12:57:57.457Z,1.60
2018-12-22T12:59:01.576Z,2.40
2018-12-22T13:00:05.664Z,1.90
2018-12-22T13:01:09.367Z,1.80
2018-12-22T13:02:13.024Z,2.17
2018-12-22T13:03:17.265Z,1.97
2018-12-22T13:04:21.486Z,1.97
2018-12-22T13:05:25.394Z,2.83
2018-12-22T13:06:29.132Z,1.70
2018-12-22T13:07:32.739Z,2.37
2018-12-22T13:08:36.822Z,2.80
2018-12-22T13:09:40.503Z,2.10
2018-12-22T13:10:44.142Z,1.83
2018-12-22T13:11:48.842Z,1.87
2018-12-22T13:13:58.601Z,2.10
2018-12-22T13:15:02.399Z,1.50
2018-12-22T13:16:06.728Z,1.87
2018-12-22T13:17:10.350Z,1.90
2018-12-22T13:18:14.094Z,2.55
2018-12-22T13:19:17.684Z,2.00
2018-12-22T13:20:21.461Z,1.80
2018-12-22T13:21:25.144Z,2.80
2018-12-22T13:22:29.001Z,1.87
2018-12-22T13:23:32.641Z,1.90
2018-12-22T13:24:36.771Z,1.53
2018-12-22T13:25:40.384Z,2.17
2018-12-22T13:26:43.972Z,2.20
2018-12-22T13:27:47.504Z,2.27
2018-12-22T13:28:51.019Z,1.63
2018-12-22T13:29:54.725Z,1.70
2018-12-22T13:30:59.981Z,1.77
2018-12-22T13:32:09.526Z,1.77
2018-12-22T13:33:09.877Z,2.23
2018-12-22T13:34:13.775Z,2.53
2018-12-22T13:35:17.338Z,1.60
2018-12-22T13:36:20.864Z,1.43
2018-12-22T13:37:24.560Z,1.53
2018-12-22T13:38:28.821Z,1.20
2018-12-22T13:39:32.373Z,2.10
2018-12-22T13:40:35.869Z,1.40
2018-12-22T13:41:39.417Z,1.50
2018-12-22T13:42:42.967Z,1.80
2018-12-22T13:43:46.445Z,1.40
2018-12-22T13:44:49.918Z,1.50
2018-12-22T13:45:53.533Z,1.20
2018-12-22T13:46:57.073Z,1.67
2018-12-22T13:48:00.899Z,1.30
2018-12-22T13:49:05.085Z,1.43
2018-12-22T13:50:09.173Z,1.30
2018-12-22T13:51:13.764Z,1.93
2018-12-22T13:52:18.291Z,1.60
2018-12-22T13:53:21.987Z,1.50
2018-12-22T13:54:26.351Z,2.10
2018-12-22T13:55:30.353Z,1.43
2018-12-22T13:56:33.881Z,1.60
2018-12-22T13:57:37.979Z,1.53
2018-12-22T13:58:41.787Z,2.10
2018-12-22T13:59:45.369Z,1.50
2018-12-22T14:00:48.889Z,1.37
2018-12-22T14:02:02.749Z,1.23
2018-12-22T14:03:07.727Z,1.50
2018-12-22T14:04:11.604Z,1.80
2018-12-22T14:05:18.736Z,1.37
2018-12-22T14:06:26.875Z,1.77
2018-12-22T14:07:30.383Z,1.57
2018-12-22T14:08:33.855Z,1.53
2018-12-22T14:09:37.475Z,2.20
2018-12-22T14:10:41.082Z,1.30
2018-12-22T14:11:44.676Z,1.90